sensor_id;sensor_type;location;lat;lon;timestamp;P1;durP1;ratioP1;P2;durP2;ratioP2
11797;SDS011;5956;51.428;6.682;2022-10-13T00:00:42;14.47;;;11.93;;
11797;SDS011;5956;51.428;6.682;2022-10-13T00:03:23;18.97;;;13.50;;
11797;SDS011;5956;51.428;6.682;2022-10-13T00:05:58;15.50;;;11.63;;
11797;SDS011;5956;51.428;6.682;2022-10-13T00:08:35;14.83;;;12.80;;
11797;SDS011;5956;51.428;6.682;2022-10-13T00:11:11;16.53;;;12.73;;
11797;SDS011;5956;51.428;6.682;2022-10-13T00:13:53;15.80;;;12.50;;
11797;SDS011;5956;51.428;6.682;2022-10-13T00:16:33;16.60;;;13.37;;
11797;SDS011;5956;51.428;6.682;2022-10-13T00:19:08;16.17;;;12.60;;
11797;SDS011;5956;51.428;6.682;2022-10-13T00:21:41;15.63;;;11.90;;
11797;SDS011;5956;51.428;6.682;2022-10-13T00:24:09;14.17;;;11.67;;
11797;SDS011;5956;51.428;6.682;2022-10-13T00:26:41;17.43;;;14.07;;
11797;SDS011;5956;51.428;6.682;2022-10-13T00:29:12;15.33;;;13.60;;
11797;SDS011;5956;51.428;6.682;2022-10-13T00:31:48;17.93;;;13.30;;
11797;SDS011;5956;51.428;6.682;2022-10-13T00:34:17;16.77;;;12.77;;
11797;SDS011;5956;51.428;6.682;2022-10-13T00:36:45;17.17;;;12.90;;
11797;SDS011;5956;51.428;6.682;2022-10-13T00:39:12;14.07;;;12.53;;
11797;SDS011;5956;51.428;6.682;2022-10-13T00:41:43;16.73;;;12.07;;
11797;SDS011;5956;51.428;6.682;2022-10-13T00:47:22;14.37;;;12.73;;
11797;SDS011;5956;51.428;6.682;2022-10-13T00:49:58;15.77;;;12.90;;
11797;SDS011;5956;51.428;6.682;2022-10-13T00:52:27;18.80;;;14.13;;
11797;SDS011;5956;51.428;6.682;2022-10-13T00:54:59;16.90;;;13.20;;
11797;SDS011;5956;51.428;6.682;2022-10-13T00:57:38;15.47;;;13.50;;
11797;SDS011;5956;51.428;6.682;2022-10-13T01:00:07;16.17;;;14.47;;
11797;SDS011;5956;51.428;6.682;2022-10-13T01:02:38;16.20;;;14.50;;
11797;SDS011;5956;51.428;6.682;2022-10-13T01:05:06;17.37;;;14.40;;
11797;SDS011;5956;51.428;6.682;2022-10-13T01:07:46;16.20;;;13.80;;
11797;SDS011;5956;51.428;6.682;2022-10-13T01:10:24;18.20;;;13.57;;
11797;SDS011;5956;51.428;6.682;2022-10-13T01:12:59;15.27;;;13.77;;
11797;SDS011;5956;51.428;6.682;2022-10-13T01:15:36;16.43;;;13.73;;
11797;SDS011;5956;51.428;6.682;2022-10-13T01:18:19;16.20;;;14.57;;
11797;SDS011;5956;51.428;6.682;2022-10-13T01:20:56;16.23;;;13.43;;
11797;SDS011;5956;51.428;6.682;2022-10-13T01:27:09;17.17;;;12.50;;
11797;SDS011;5956;51.428;6.682;2022-10-13T01:35:45;17.77;;;12.60;;
11797;SDS011;5956;51.428;6.682;2022-10-13T01:38:28;15.73;;;11.63;;
11797;SDS011;5956;51.428;6.682;2022-10-13T01:41:03;15.37;;;12.70;;
11797;SDS011;5956;51.428;6.682;2022-10-13T01:43:36;14.10;;;11.97;;
11797;SDS011;5956;51.428;6.682;2022-10-13T01:46:11;17.20;;;11.90;;
11797;SDS011;5956;51.428;6.682;2022-10-13T01:48:46;17.53;;;12.67;;
11797;SDS011;5956;51.428;6.682;2022-10-13T01:51:21;13.57;;;11.13;;
11797;SDS011;5956;51.428;6.682;2022-10-13T01:53:52;15.20;;;11.90;;
11797;SDS011;5956;51.428;6.682;2022-10-13T01:56:27;13.67;;;11.37;;
11797;SDS011;5956;51.428;6.682;2022-10-13T01:59:00;13.10;;;11.77;;
11797;SDS011;5956;51.428;6.682;2022-10-13T02:04:31;13.40;;;11.60;;
11797;SDS011;5956;51.428;6.682;2022-10-13T02:07:07;15.60;;;11.87;;
11797;SDS011;5956;51.428;6.682;2022-10-13T02:09:41;12.93;;;11.60;;
11797;SDS011;5956;51.428;6.682;2022-10-13T02:12:15;13.57;;;11.67;;
11797;SDS011;5956;51.428;6.682;2022-10-13T02:14:51;16.67;;;11.73;;
11797;SDS011;5956;51.428;6.682;2022-10-13T02:17:29;15.47;;;11.90;;
11797;SDS011;5956;51.428;6.682;2022-10-13T02:20:18;14.13;;;11.53;;
11797;SDS011;5956;51.428;6.682;2022-10-13T02:22:47;13.60;;;10.80;;
11797;SDS011;5956;51.428;6.682;2022-10-13T02:25:22;12.87;;;11.47;;
11797;SDS011;5956;51.428;6.682;2022-10-13T02:27:54;14.07;;;11.50;;
11797;SDS011;5956;51.428;6.682;2022-10-13T02:30:32;13.00;;;11.20;;
11797;SDS011;5956;51.428;6.682;2022-10-13T02:33:09;13.70;;;11.50;;
11797;SDS011;5956;51.428;6.682;2022-10-13T02:35:43;14.67;;;10.50;;
11797;SDS011;5956;51.428;6.682;2022-10-13T02:38:21;13.90;;;11.13;;
11797;SDS011;5956;51.428;6.682;2022-10-13T02:40:59;14.63;;;11.60;;
11797;SDS011;5956;51.428;6.682;2022-10-13T02:43:32;16.23;;;10.90;;
11797;SDS011;5956;51.428;6.682;2022-10-13T02:46:03;16.53;;;11.67;;
11797;SDS011;5956;51.428;6.682;2022-10-13T02:48:42;15.93;;;12.13;;
11797;SDS011;5956;51.428;6.682;2022-10-13T02:51:15;16.40;;;11.77;;
11797;SDS011;5956;51.428;6.682;2022-10-13T02:53:53;13.00;;;11.63;;
11797;SDS011;5956;51.428;6.682;2022-10-13T02:56:23;12.67;;;11.37;;
11797;SDS011;5956;51.428;6.682;2022-10-13T02:58:53;16.00;;;11.77;;
11797;SDS011;5956;51.428;6.682;2022-10-13T03:01:24;14.57;;;11.80;;
11797;SDS011;5956;51.428;6.682;2022-10-13T03:04:03;13.30;;;11.90;;
11797;SDS011;5956;51.428;6.682;2022-10-13T03:06:42;15.47;;;12.00;;
11797;SDS011;5956;51.428;6.682;2022-10-13T03:09:21;16.40;;;12.37;;
11797;SDS011;5956;51.428;6.682;2022-10-13T03:11:52;18.90;;;13.27;;
11797;SDS011;5956;51.428;6.682;2022-10-13T03:14:26;14.33;;;11.83;;
11797;SDS011;5956;51.428;6.682;2022-10-13T03:16:54;15.63;;;12.00;;
11797;SDS011;5956;51.428;6.682;2022-10-13T03:19:26;13.27;;;11.67;;
11797;SDS011;5956;51.428;6.682;2022-10-13T03:21:59;15.63;;;11.50;;
11797;SDS011;5956;51.428;6.682;2022-10-13T03:24:32;17.60;;;12.53;;
11797;SDS011;5956;51.428;6.682;2022-10-13T03:27:07;17.70;;;12.10;;
11797;SDS011;5956;51.428;6.682;2022-10-13T03:29:57;12.67;;;11.13;;
11797;SDS011;5956;51.428;6.682;2022-10-13T03:32:43;13.93;;;12.23;;
11797;SDS011;5956;51.428;6.682;2022-10-13T03:35:12;14.00;;;11.57;;
11797;SDS011;5956;51.428;6.682;2022-10-13T03:37:55;12.90;;;11.53;;
11797;SDS011;5956;51.428;6.682;2022-10-13T03:40:24;16.80;;;11.90;;
11797;SDS011;5956;51.428;6.682;2022-10-13T03:42:55;15.63;;;12.27;;
11797;SDS011;5956;51.428;6.682;2022-10-13T03:45:25;15.27;;;12.83;;
11797;SDS011;5956;51.428;6.682;2022-10-13T03:47:55;15.00;;;11.57;;
11797;SDS011;5956;51.428;6.682;2022-10-13T03:50:25;14.17;;;11.77;;
11797;SDS011;5956;51.428;6.682;2022-10-13T03:52:52;15.10;;;12.57;;
11797;SDS011;5956;51.428;6.682;2022-10-13T03:55:24;14.07;;;12.07;;
11797;SDS011;5956;51.428;6.682;2022-10-13T03:58:01;16.80;;;12.23;;
11797;SDS011;5956;51.428;6.682;2022-10-13T04:00:33;21.50;;;13.20;;
11797;SDS011;5956;51.428;6.682;2022-10-13T04:03:05;15.33;;;13.00;;
11797;SDS011;5956;51.428;6.682;2022-10-13T04:05:37;14.27;;;12.43;;
11797;SDS011;5956;51.428;6.682;2022-10-13T04:08:09;14.40;;;12.30;;
11797;SDS011;5956;51.428;6.682;2022-10-13T04:10:39;13.30;;;11.90;;
11797;SDS011;5956;51.428;6.682;2022-10-13T04:13:15;14.03;;;12.40;;
11797;SDS011;5956;51.428;6.682;2022-10-13T04:15:54;12.83;;;11.33;;
11797;SDS011;5956;51.428;6.682;2022-10-13T04:18:21;15.97;;;11.63;;
11797;SDS011;5956;51.428;6.682;2022-10-13T04:20:52;14.13;;;11.77;;
11797;SDS011;5956;51.428;6.682;2022-10-13T04:23:39;13.57;;;11.23;;
11797;SDS011;5956;51.428;6.682;2022-10-13T04:26:17;25.13;;;19.00;;
11797;SDS011;5956;51.428;6.682;2022-10-13T04:28:52;18.13;;;14.33;;
11797;SDS011;5956;51.428;6.682;2022-10-13T04:31:26;17.40;;;12.20;;
11797;SDS011;5956;51.428;6.682;2022-10-13T04:33:57;13.77;;;10.83;;
11797;SDS011;5956;51.428;6.682;2022-10-13T04:36:34;15.07;;;12.10;;
11797;SDS011;5956;51.428;6.682;2022-10-13T04:39:05;14.00;;;11.67;;
11797;SDS011;5956;51.428;6.682;2022-10-13T04:41:32;12.97;;;11.70;;
11797;SDS011;5956;51.428;6.682;2022-10-13T04:44:02;18.23;;;15.83;;
11797;SDS011;5956;51.428;6.682;2022-10-13T04:46:32;18.43;;;13.33;;
11797;SDS011;5956;51.428;6.682;2022-10-13T04:49:01;16.30;;;11.73;;
11797;SDS011;5956;51.428;6.682;2022-10-13T04:51:29;13.97;;;12.03;;
11797;SDS011;5956;51.428;6.682;2022-10-13T04:53:59;16.67;;;11.60;;
11797;SDS011;5956;51.428;6.682;2022-10-13T04:56:35;14.40;;;11.70;;
11797;SDS011;5956;51.428;6.682;2022-10-13T04:59:02;14.70;;;11.20;;
11797;SDS011;5956;51.428;6.682;2022-10-13T05:01:31;16.00;;;13.80;;
11797;SDS011;5956;51.428;6.682;2022-10-13T05:04:08;24.87;;;19.53;;
11797;SDS011;5956;51.428;6.682;2022-10-13T05:06:43;16.10;;;12.10;;
11797;SDS011;5956;51.428;6.682;2022-10-13T05:09:15;13.87;;;11.67;;
11797;SDS011;5956;51.428;6.682;2022-10-13T05:11:49;13.73;;;11.60;;
11797;SDS011;5956;51.428;6.682;2022-10-13T05:14:22;16.20;;;12.73;;
11797;SDS011;5956;51.428;6.682;2022-10-13T05:16:51;16.73;;;11.50;;
11797;SDS011;5956;51.428;6.682;2022-10-13T05:19:25;13.20;;;11.37;;
11797;SDS011;5956;51.428;6.682;2022-10-13T05:21:59;14.97;;;11.23;;
11797;SDS011;5956;51.428;6.682;2022-10-13T05:24:32;14.27;;;11.20;;
11797;SDS011;5956;51.428;6.682;2022-10-13T05:27:08;16.30;;;12.83;;
11797;SDS011;5956;51.428;6.682;2022-10-13T05:29:41;20.20;;;15.57;;
11797;SDS011;5956;51.428;6.682;2022-10-13T05:32:21;16.47;;;13.57;;
11797;SDS011;5956;51.428;6.682;2022-10-13T05:34:50;13.50;;;11.90;;
11797;SDS011;5956;51.428;6.682;2022-10-13T05:37:18;16.00;;;11.90;;
11797;SDS011;5956;51.428;6.682;2022-10-13T05:39:49;14.97;;;12.00;;
11797;SDS011;5956;51.428;6.682;2022-10-13T05:42:22;18.10;;;12.23;;
11797;SDS011;5956;51.428;6.682;2022-10-13T05:44:49;16.77;;;12.50;;
11797;SDS011;5956;51.428;6.682;2022-10-13T05:47:17;16.40;;;13.07;;
11797;SDS011;5956;51.428;6.682;2022-10-13T05:49:52;16.30;;;12.87;;
11797;SDS011;5956;51.428;6.682;2022-10-13T05:52:26;16.63;;;12.30;;
11797;SDS011;5956;51.428;6.682;2022-10-13T05:54:59;15.57;;;12.43;;
11797;SDS011;5956;51.428;6.682;2022-10-13T05:57:33;14.90;;;12.17;;
11797;SDS011;5956;51.428;6.682;2022-10-13T06:00:12;14.13;;;11.57;;
11797;SDS011;5956;51.428;6.682;2022-10-13T06:02:47;12.77;;;11.20;;
11797;SDS011;5956;51.428;6.682;2022-10-13T06:05:27;15.70;;;11.97;;
11797;SDS011;5956;51.428;6.682;2022-10-13T06:07:56;18.20;;;15.23;;
11797;SDS011;5956;51.428;6.682;2022-10-13T06:10:28;16.00;;;13.17;;
11797;SDS011;5956;51.428;6.682;2022-10-13T06:12:58;20.43;;;12.90;;
11797;SDS011;5956;51.428;6.682;2022-10-13T06:15:28;15.47;;;12.37;;
11797;SDS011;5956;51.428;6.682;2022-10-13T06:18:07;16.53;;;11.50;;
11797;SDS011;5956;51.428;6.682;2022-10-13T06:20:40;14.87;;;13.03;;
11797;SDS011;5956;51.428;6.682;2022-10-13T06:23:08;14.77;;;11.47;;
11797;SDS011;5956;51.428;6.682;2022-10-13T06:25:46;13.93;;;12.10;;
11797;SDS011;5956;51.428;6.682;2022-10-13T06:28:19;16.03;;;11.67;;
11797;SDS011;5956;51.428;6.682;2022-10-13T06:30:50;14.70;;;11.30;;
11797;SDS011;5956;51.428;6.682;2022-10-13T06:33:23;17.20;;;12.20;;
11797;SDS011;5956;51.428;6.682;2022-10-13T06:35:59;14.37;;;12.07;;
11797;SDS011;5956;51.428;6.682;2022-10-13T06:38:37;15.03;;;11.87;;
11797;SDS011;5956;51.428;6.682;2022-10-13T06:41:12;15.07;;;11.50;;
11797;SDS011;5956;51.428;6.682;2022-10-13T06:43:40;17.30;;;12.43;;
11797;SDS011;5956;51.428;6.682;2022-10-13T06:46:15;16.60;;;12.17;;
11797;SDS011;5956;51.428;6.682;2022-10-13T06:48:48;18.57;;;12.97;;
11797;SDS011;5956;51.428;6.682;2022-10-13T06:51:18;14.53;;;11.97;;
11797;SDS011;5956;51.428;6.682;2022-10-13T06:53:48;13.70;;;12.00;;
11797;SDS011;5956;51.428;6.682;2022-10-13T06:56:20;15.73;;;11.90;;
11797;SDS011;5956;51.428;6.682;2022-10-13T06:58:47;16.47;;;12.17;;
11797;SDS011;5956;51.428;6.682;2022-10-13T07:01:15;13.73;;;11.83;;
11797;SDS011;5956;51.428;6.682;2022-10-13T07:03:43;15.67;;;11.93;;
11797;SDS011;5956;51.428;6.682;2022-10-13T07:06:17;14.00;;;12.60;;
11797;SDS011;5956;51.428;6.682;2022-10-13T07:08:45;14.07;;;12.63;;
11797;SDS011;5956;51.428;6.682;2022-10-13T07:11:23;17.77;;;12.63;;
11797;SDS011;5956;51.428;6.682;2022-10-13T07:13:52;16.60;;;12.20;;
11797;SDS011;5956;51.428;6.682;2022-10-13T07:16:23;16.37;;;12.57;;
11797;SDS011;5956;51.428;6.682;2022-10-13T07:18:51;15.07;;;12.43;;
11797;SDS011;5956;51.428;6.682;2022-10-13T07:21:25;15.80;;;11.87;;
11797;SDS011;5956;51.428;6.682;2022-10-13T07:23:57;19.73;;;12.87;;
11797;SDS011;5956;51.428;6.682;2022-10-13T07:26:27;18.07;;;11.50;;
11797;SDS011;5956;51.428;6.682;2022-10-13T07:28:58;15.30;;;12.57;;
11797;SDS011;5956;51.428;6.682;2022-10-13T07:31:31;14.27;;;11.50;;
11797;SDS011;5956;51.428;6.682;2022-10-13T07:34:01;16.87;;;12.10;;
11797;SDS011;5956;51.428;6.682;2022-10-13T07:36:41;15.07;;;12.53;;
11797;SDS011;5956;51.428;6.682;2022-10-13T07:39:10;16.97;;;11.93;;
11797;SDS011;5956;51.428;6.682;2022-10-13T07:41:39;16.53;;;11.77;;
11797;SDS011;5956;51.428;6.682;2022-10-13T07:44:06;15.53;;;12.20;;
11797;SDS011;5956;51.428;6.682;2022-10-13T07:46:34;12.83;;;10.63;;
11797;SDS011;5956;51.428;6.682;2022-10-13T07:49:06;16.03;;;12.40;;
11797;SDS011;5956;51.428;6.682;2022-10-13T07:51:36;16.47;;;12.33;;
11797;SDS011;5956;51.428;6.682;2022-10-13T07:54:04;15.60;;;11.80;;
11797;SDS011;5956;51.428;6.682;2022-10-13T07:56:34;18.83;;;12.00;;
11797;SDS011;5956;51.428;6.682;2022-10-13T07:59:05;29.00;;;25.50;;
11797;SDS011;5956;51.428;6.682;2022-10-13T08:01:41;20.20;;;17.33;;
11797;SDS011;5956;51.428;6.682;2022-10-13T08:04:09;17.90;;;12.77;;
11797;SDS011;5956;51.428;6.682;2022-10-13T08:06:36;17.30;;;12.53;;
11797;SDS011;5956;51.428;6.682;2022-10-13T08:09:13;16.73;;;12.53;;
11797;SDS011;5956;51.428;6.682;2022-10-13T08:11:43;14.53;;;12.00;;
11797;SDS011;5956;51.428;6.682;2022-10-13T08:14:18;19.27;;;12.37;;
11797;SDS011;5956;51.428;6.682;2022-10-13T08:16:49;15.40;;;12.40;;
11797;SDS011;5956;51.428;6.682;2022-10-13T08:19:25;14.60;;;12.07;;
11797;SDS011;5956;51.428;6.682;2022-10-13T08:22:01;14.10;;;12.63;;
11797;SDS011;5956;51.428;6.682;2022-10-13T08:24:36;13.83;;;12.53;;
11797;SDS011;5956;51.428;6.682;2022-10-13T08:27:08;17.10;;;13.93;;
11797;SDS011;5956;51.428;6.682;2022-10-13T08:29:47;18.47;;;14.20;;
11797;SDS011;5956;51.428;6.682;2022-10-13T08:32:24;16.47;;;13.03;;
11797;SDS011;5956;51.428;6.682;2022-10-13T08:34:52;18.57;;;13.13;;
11797;SDS011;5956;51.428;6.682;2022-10-13T08:37:22;18.10;;;12.97;;
11797;SDS011;5956;51.428;6.682;2022-10-13T08:39:53;16.10;;;13.03;;
11797;SDS011;5956;51.428;6.682;2022-10-13T08:42:26;13.87;;;12.27;;
11797;SDS011;5956;51.428;6.682;2022-10-13T08:45:09;15.83;;;13.13;;
11797;SDS011;5956;51.428;6.682;2022-10-13T08:47:45;15.30;;;12.63;;
11797;SDS011;5956;51.428;6.682;2022-10-13T08:50:26;14.73;;;12.43;;
11797;SDS011;5956;51.428;6.682;2022-10-13T08:52:57;16.17;;;11.90;;
11797;SDS011;5956;51.428;6.682;2022-10-13T08:55:36;13.50;;;12.10;;
11797;SDS011;5956;51.428;6.682;2022-10-13T08:58:17;14.53;;;12.80;;
11797;SDS011;5956;51.428;6.682;2022-10-13T09:00:59;17.40;;;12.60;;
11797;SDS011;5956;51.428;6.682;2022-10-13T09:03:42;18.30;;;12.67;;
11797;SDS011;5956;51.428;6.682;2022-10-13T09:06:25;13.80;;;12.33;;
11797;SDS011;5956;51.428;6.682;2022-10-13T09:09:05;21.37;;;17.13;;
11797;SDS011;5956;51.428;6.682;2022-10-13T09:11:39;18.30;;;11.30;;
11797;SDS011;5956;51.428;6.682;2022-10-13T09:14:12;13.77;;;12.27;;
11797;SDS011;5956;51.428;6.682;2022-10-13T09:17:14;14.60;;;11.90;;
11797;SDS011;5956;51.428;6.682;2022-10-13T09:19:42;15.87;;;12.43;;
11797;SDS011;5956;51.428;6.682;2022-10-13T09:22:18;14.57;;;12.27;;
11797;SDS011;5956;51.428;6.682;2022-10-13T09:25:07;17.33;;;12.50;;
11797;SDS011;5956;51.428;6.682;2022-10-13T09:27:45;14.27;;;11.77;;
11797;SDS011;5956;51.428;6.682;2022-10-13T09:30:23;12.60;;;11.17;;
11797;SDS011;5956;51.428;6.682;2022-10-13T09:33:24;15.27;;;12.23;;
11797;SDS011;5956;51.428;6.682;2022-10-13T09:36:08;15.87;;;13.03;;
11797;SDS011;5956;51.428;6.682;2022-10-13T09:38:42;14.80;;;11.63;;
11797;SDS011;5956;51.428;6.682;2022-10-13T09:41:33;16.77;;;12.23;;
11797;SDS011;5956;51.428;6.682;2022-10-13T09:44:12;16.17;;;12.10;;
11797;SDS011;5956;51.428;6.682;2022-10-13T09:47:01;14.07;;;12.10;;
11797;SDS011;5956;51.428;6.682;2022-10-13T09:49:37;17.43;;;11.47;;
11797;SDS011;5956;51.428;6.682;2022-10-13T09:52:21;15.40;;;11.60;;
11797;SDS011;5956;51.428;6.682;2022-10-13T09:54:56;14.37;;;11.60;;
11797;SDS011;5956;51.428;6.682;2022-10-13T09:57:38;21.40;;;16.00;;
11797;SDS011;5956;51.428;6.682;2022-10-13T10:00:16;16.10;;;11.47;;
11797;SDS011;5956;51.428;6.682;2022-10-13T10:02:47;16.70;;;11.45;;
11797;SDS011;5956;51.428;6.682;2022-10-13T10:05:20;13.70;;;10.63;;
11797;SDS011;5956;51.428;6.682;2022-10-13T10:07:59;16.90;;;11.88;;
11797;SDS011;5956;51.428;6.682;2022-10-13T10:10:46;13.20;;;10.85;;
11797;SDS011;5956;51.428;6.682;2022-10-13T10:13:18;14.47;;;10.83;;
11797;SDS011;5956;51.428;6.682;2022-10-13T10:15:51;13.27;;;10.03;;
11797;SDS011;5956;51.428;6.682;2022-10-13T10:18:30;15.85;;;12.73;;
11797;SDS011;5956;51.428;6.682;2022-10-13T10:21:15;13.25;;;10.75;;
11797;SDS011;5956;51.428;6.682;2022-10-13T10:23:53;12.23;;;9.63;;
11797;SDS011;5956;51.428;6.682;2022-10-13T10:26:33;12.52;;;10.40;;
11797;SDS011;5956;51.428;6.682;2022-10-13T10:29:19;13.75;;;10.25;;
11797;SDS011;5956;51.428;6.682;2022-10-13T10:32:10;13.40;;;10.10;;
11797;SDS011;5956;51.428;6.682;2022-10-13T10:35:30;12.40;;;9.30;;
11797;SDS011;5956;51.428;6.682;2022-10-13T10:38:18;11.25;;;8.55;;
11797;SDS011;5956;51.428;6.682;2022-10-13T10:40:55;14.50;;;9.55;;
11797;SDS011;5956;51.428;6.682;2022-10-13T10:43:32;12.88;;;8.55;;
11797;SDS011;5956;51.428;6.682;2022-10-13T10:46:11;10.40;;;8.93;;
11797;SDS011;5956;51.428;6.682;2022-10-13T10:48:49;12.35;;;8.13;;
11797;SDS011;5956;51.428;6.682;2022-10-13T10:51:27;11.57;;;8.02;;
11797;SDS011;5956;51.428;6.682;2022-10-13T10:54:08;9.00;;;7.93;;
11797;SDS011;5956;51.428;6.682;2022-10-13T10:56:51;11.38;;;8.43;;
11797;SDS011;5956;51.428;6.682;2022-10-13T10:59:36;15.65;;;8.00;;
11797;SDS011;5956;51.428;6.682;2022-10-13T11:02:13;13.23;;;9.07;;
11797;SDS011;5956;51.428;6.682;2022-10-13T11:04:49;10.55;;;7.57;;
11797;SDS011;5956;51.428;6.682;2022-10-13T11:10:21;8.77;;;7.88;;
11797;SDS011;5956;51.428;6.682;2022-10-13T11:15:46;9.05;;;7.80;;
11797;SDS011;5956;51.428;6.682;2022-10-13T11:24:48;12.98;;;8.38;;
11797;SDS011;5956;51.428;6.682;2022-10-13T11:27:39;12.02;;;7.63;;
11797;SDS011;5956;51.428;6.682;2022-10-13T11:33:33;10.60;;;7.85;;
11797;SDS011;5956;51.428;6.682;2022-10-13T11:39:02;10.73;;;7.18;;
11797;SDS011;5956;51.428;6.682;2022-10-13T11:41:40;8.00;;;7.20;;
11797;SDS011;5956;51.428;6.682;2022-10-13T11:44:16;7.95;;;6.72;;
11797;SDS011;5956;51.428;6.682;2022-10-13T11:47:01;8.50;;;6.68;;
11797;SDS011;5956;51.428;6.682;2022-10-13T11:49:51;11.95;;;7.35;;
11797;SDS011;5956;51.428;6.682;2022-10-13T11:52:53;7.65;;;6.07;;
11797;SDS011;5956;51.428;6.682;2022-10-13T11:55:41;8.20;;;5.82;;
11797;SDS011;5956;51.428;6.682;2022-10-13T11:58:15;6.97;;;5.78;;
11797;SDS011;5956;51.428;6.682;2022-10-13T12:00:55;9.93;;;5.47;;
11797;SDS011;5956;51.428;6.682;2022-10-13T12:03:33;6.75;;;5.63;;
11797;SDS011;5956;51.428;6.682;2022-10-13T12:06:15;9.27;;;5.65;;
11797;SDS011;5956;51.428;6.682;2022-10-13T12:09:02;5.97;;;5.47;;
11797;SDS011;5956;51.428;6.682;2022-10-13T12:11:34;7.18;;;5.35;;
11797;SDS011;5956;51.428;6.682;2022-10-13T12:14:16;9.52;;;6.28;;
11797;SDS011;5956;51.428;6.682;2022-10-13T12:16:56;6.43;;;5.55;;
11797;SDS011;5956;51.428;6.682;2022-10-13T12:19:25;6.93;;;6.13;;
11797;SDS011;5956;51.428;6.682;2022-10-13T12:22:02;8.05;;;6.10;;
11797;SDS011;5956;51.428;6.682;2022-10-13T12:24:38;10.05;;;6.13;;
11797;SDS011;5956;51.428;6.682;2022-10-13T12:27:19;9.13;;;6.28;;
11797;SDS011;5956;51.428;6.682;2022-10-13T12:29:49;10.38;;;6.55;;
11797;SDS011;5956;51.428;6.682;2022-10-13T12:32:22;9.10;;;5.87;;
11797;SDS011;5956;51.428;6.682;2022-10-13T12:34:53;6.15;;;5.40;;
11797;SDS011;5956;51.428;6.682;2022-10-13T12:37:27;6.85;;;6.18;;
11797;SDS011;5956;51.428;6.682;2022-10-13T12:40:11;8.15;;;6.03;;
11797;SDS011;5956;51.428;6.682;2022-10-13T12:42:47;7.28;;;6.50;;
11797;SDS011;5956;51.428;6.682;2022-10-13T12:45:25;11.15;;;6.07;;
11797;SDS011;5956;51.428;6.682;2022-10-13T12:48:00;6.60;;;5.95;;
11797;SDS011;5956;51.428;6.682;2022-10-13T12:50:47;9.65;;;6.70;;
11797;SDS011;5956;51.428;6.682;2022-10-13T12:53:18;11.90;;;9.93;;
11797;SDS011;5956;51.428;6.682;2022-10-13T12:55:52;13.48;;;9.45;;
11797;SDS011;5956;51.428;6.682;2022-10-13T12:58:24;12.77;;;6.10;;
11797;SDS011;5956;51.428;6.682;2022-10-13T13:00:54;8.90;;;6.20;;
11797;SDS011;5956;51.428;6.682;2022-10-13T13:03:31;9.23;;;6.35;;
11797;SDS011;5956;51.428;6.682;2022-10-13T13:06:07;8.15;;;6.30;;
11797;SDS011;5956;51.428;6.682;2022-10-13T13:09:07;9.85;;;6.75;;
11797;SDS011;5956;51.428;6.682;2022-10-13T13:12:04;7.53;;;6.28;;
11797;SDS011;5956;51.428;6.682;2022-10-13T13:14:46;8.80;;;6.53;;
11797;SDS011;5956;51.428;6.682;2022-10-13T13:17:23;9.95;;;7.10;;
11797;SDS011;5956;51.428;6.682;2022-10-13T13:19:58;9.82;;;6.63;;
11797;SDS011;5956;51.428;6.682;2022-10-13T13:22:27;7.90;;;6.43;;
11797;SDS011;5956;51.428;6.682;2022-10-13T13:25:09;11.75;;;6.78;;
11797;SDS011;5956;51.428;6.682;2022-10-13T13:27:41;7.35;;;6.38;;
11797;SDS011;5956;51.428;6.682;2022-10-13T13:30:14;8.20;;;6.70;;
11797;SDS011;5956;51.428;6.682;2022-10-13T13:32:47;9.32;;;6.55;;
11797;SDS011;5956;51.428;6.682;2022-10-13T13:35:30;8.27;;;6.47;;
11797;SDS011;5956;51.428;6.682;2022-10-13T13:37:59;16.30;;;14.02;;
11797;SDS011;5956;51.428;6.682;2022-10-13T13:40:27;13.68;;;11.40;;
11797;SDS011;5956;51.428;6.682;2022-10-13T13:43:02;10.85;;;7.68;;
11797;SDS011;5956;51.428;6.682;2022-10-13T13:45:31;7.05;;;6.28;;
11797;SDS011;5956;51.428;6.682;2022-10-13T13:48:05;8.57;;;6.40;;
11797;SDS011;5956;51.428;6.682;2022-10-13T13:50:39;6.90;;;6.20;;
11797;SDS011;5956;51.428;6.682;2022-10-13T13:53:16;10.15;;;6.88;;
11797;SDS011;5956;51.428;6.682;2022-10-13T13:55:47;6.70;;;5.68;;
11797;SDS011;5956;51.428;6.682;2022-10-13T13:58:23;7.38;;;5.78;;
11797;SDS011;5956;51.428;6.682;2022-10-13T14:00:59;8.18;;;7.07;;
11797;SDS011;5956;51.428;6.682;2022-10-13T14:03:31;8.32;;;7.20;;
11797;SDS011;5956;51.428;6.682;2022-10-13T14:06:00;7.43;;;6.70;;
11797;SDS011;5956;51.428;6.682;2022-10-13T14:08:29;8.77;;;6.90;;
11797;SDS011;5956;51.428;6.682;2022-10-13T14:11:07;9.43;;;7.87;;
11797;SDS011;5956;51.428;6.682;2022-10-13T14:13:46;10.95;;;7.93;;
11797;SDS011;5956;51.428;6.682;2022-10-13T14:16:15;15.97;;;13.63;;
11797;SDS011;5956;51.428;6.682;2022-10-13T14:18:47;23.63;;;21.13;;
11797;SDS011;5956;51.428;6.682;2022-10-13T14:21:21;13.27;;;9.90;;
11797;SDS011;5956;51.428;6.682;2022-10-13T14:23:51;12.10;;;8.90;;
11797;SDS011;5956;51.428;6.682;2022-10-13T14:26:25;11.00;;;9.43;;
11797;SDS011;5956;51.428;6.682;2022-10-13T14:28:58;12.93;;;9.25;;
11797;SDS011;5956;51.428;6.682;2022-10-13T14:31:32;9.68;;;8.68;;
11797;SDS011;5956;51.428;6.682;2022-10-13T14:34:02;13.03;;;9.30;;
11797;SDS011;5956;51.428;6.682;2022-10-13T14:36:37;13.17;;;9.43;;
11797;SDS011;5956;51.428;6.682;2022-10-13T14:39:04;13.50;;;9.43;;
11797;SDS011;5956;51.428;6.682;2022-10-13T14:41:40;10.60;;;9.03;;
11797;SDS011;5956;51.428;6.682;2022-10-13T14:44:08;10.87;;;9.23;;
11797;SDS011;5956;51.428;6.682;2022-10-13T14:46:43;12.80;;;9.70;;
11797;SDS011;5956;51.428;6.682;2022-10-13T14:49:12;12.93;;;10.53;;
11797;SDS011;5956;51.428;6.682;2022-10-13T14:51:46;14.67;;;10.73;;
11797;SDS011;5956;51.428;6.682;2022-10-13T14:54:19;12.70;;;10.70;;
11797;SDS011;5956;51.428;6.682;2022-10-13T14:56:48;14.67;;;10.80;;
11797;SDS011;5956;51.428;6.682;2022-10-13T14:59:15;13.03;;;11.33;;
11797;SDS011;5956;51.428;6.682;2022-10-13T15:01:42;12.67;;;10.63;;
11797;SDS011;5956;51.428;6.682;2022-10-13T15:04:15;13.40;;;11.90;;
11797;SDS011;5956;51.428;6.682;2022-10-13T15:06:50;15.83;;;10.60;;
11797;SDS011;5956;51.428;6.682;2022-10-13T15:09:19;14.50;;;11.00;;
11797;SDS011;5956;51.428;6.682;2022-10-13T15:11:51;13.10;;;11.47;;
11797;SDS011;5956;51.428;6.682;2022-10-13T15:14:19;16.47;;;11.93;;
11797;SDS011;5956;51.428;6.682;2022-10-13T15:16:57;15.77;;;12.57;;
11797;SDS011;5956;51.428;6.682;2022-10-13T15:19:32;12.33;;;11.23;;
11797;SDS011;5956;51.428;6.682;2022-10-13T15:22:05;14.30;;;11.60;;
11797;SDS011;5956;51.428;6.682;2022-10-13T15:24:36;12.77;;;11.37;;
11797;SDS011;5956;51.428;6.682;2022-10-13T15:27:05;14.93;;;12.27;;
11797;SDS011;5956;51.428;6.682;2022-10-13T15:29:33;13.43;;;11.37;;
11797;SDS011;5956;51.428;6.682;2022-10-13T15:32:06;13.07;;;11.40;;
11797;SDS011;5956;51.428;6.682;2022-10-13T15:34:51;15.53;;;12.33;;
11797;SDS011;5956;51.428;6.682;2022-10-13T15:37:20;16.40;;;12.43;;
11797;SDS011;5956;51.428;6.682;2022-10-13T15:39:51;17.60;;;14.20;;
11797;SDS011;5956;51.428;6.682;2022-10-13T15:42:19;15.60;;;13.30;;
11797;SDS011;5956;51.428;6.682;2022-10-13T15:44:53;16.90;;;14.80;;
11797;SDS011;5956;51.428;6.682;2022-10-13T15:47:20;15.60;;;13.93;;
11797;SDS011;5956;51.428;6.682;2022-10-13T15:49:53;16.53;;;13.97;;
11797;SDS011;5956;51.428;6.682;2022-10-13T15:52:23;17.83;;;14.17;;
11797;SDS011;5956;51.428;6.682;2022-10-13T15:54:52;18.13;;;13.90;;
11797;SDS011;5956;51.428;6.682;2022-10-13T15:57:23;16.37;;;13.50;;
11797;SDS011;5956;51.428;6.682;2022-10-13T15:59:55;15.93;;;13.33;;